sensor_id;sensor_type;location;lat;lon;timestamp;P1;durP1;ratioP1;P2;durP2;ratioP2
35188;SDS011;21762;54.480;18.556;2023-12-07T00:00:17;63.97;;;30.33;;
35188;SDS011;21762;54.480;18.556;2023-12-07T00:02:45;72.80;;;32.58;;
35188;SDS011;21762;54.480;18.556;2023-12-07T00:05:13;68.00;;;30.58;;
35188;SDS011;21762;54.480;18.556;2023-12-07T00:07:41;71.43;;;33.35;;
35188;SDS011;21762;54.480;18.556;2023-12-07T00:10:10;66.65;;;31.15;;
35188;SDS011;21762;54.480;18.556;2023-12-07T00:12:38;71.95;;;31.83;;
35188;SDS011;21762;54.480;18.556;2023-12-07T00:15:07;68.43;;;30.73;;
35188;SDS011;21762;54.480;18.556;2023-12-07T00:17:35;73.45;;;33.75;;
35188;SDS011;21762;54.480;18.556;2023-12-07T00:20:04;66.13;;;31.50;;
35188;SDS011;21762;54.480;18.556;2023-12-07T00:22:33;64.07;;;28.83;;
35188;SDS011;21762;54.480;18.556;2023-12-07T00:25:01;70.18;;;31.90;;
35188;SDS011;21762;54.480;18.556;2023-12-07T00:27:31;69.20;;;32.40;;
35188;SDS011;21762;54.480;18.556;2023-12-07T00:29:59;67.72;;;31.33;;
35188;SDS011;21762;54.480;18.556;2023-12-07T00:32:27;67.90;;;31.08;;
35188;SDS011;21762;54.480;18.556;2023-12-07T00:34:55;67.55;;;30.67;;
35188;SDS011;21762;54.480;18.556;2023-12-07T00:37:23;67.35;;;30.38;;
35188;SDS011;21762;54.480;18.556;2023-12-07T00:39:51;67.72;;;30.25;;
35188;SDS011;21762;54.480;18.556;2023-12-07T00:42:19;73.72;;;31.73;;
35188;SDS011;21762;54.480;18.556;2023-12-07T00:44:49;71.75;;;31.02;;
35188;SDS011;21762;54.480;18.556;2023-12-07T00:47:17;65.53;;;31.80;;
35188;SDS011;21762;54.480;18.556;2023-12-07T00:49:45;64.68;;;30.98;;
35188;SDS011;21762;54.480;18.556;2023-12-07T00:52:13;66.97;;;30.35;;
35188;SDS011;21762;54.480;18.556;2023-12-07T00:54:41;63.75;;;30.55;;
35188;SDS011;21762;54.480;18.556;2023-12-07T00:57:09;69.13;;;32.00;;
35188;SDS011;21762;54.480;18.556;2023-12-07T00:59:37;66.72;;;31.58;;
35188;SDS011;21762;54.480;18.556;2023-12-07T01:02:06;76.15;;;31.95;;
35188;SDS011;21762;54.480;18.556;2023-12-07T01:04:34;71.22;;;31.42;;
35188;SDS011;21762;54.480;18.556;2023-12-07T01:07:02;76.50;;;32.92;;
35188;SDS011;21762;54.480;18.556;2023-12-07T01:09:31;69.22;;;33.20;;
35188;SDS011;21762;54.480;18.556;2023-12-07T01:11:59;72.32;;;30.52;;
35188;SDS011;21762;54.480;18.556;2023-12-07T01:14:27;70.30;;;31.75;;
35188;SDS011;21762;54.480;18.556;2023-12-07T01:16:55;72.68;;;30.77;;
35188;SDS011;21762;54.480;18.556;2023-12-07T01:19:24;70.15;;;32.08;;
35188;SDS011;21762;54.480;18.556;2023-12-07T01:21:53;65.93;;;29.55;;
35188;SDS011;21762;54.480;18.556;2023-12-07T01:24:21;69.13;;;32.28;;
35188;SDS011;21762;54.480;18.556;2023-12-07T01:26:49;70.05;;;30.40;;
35188;SDS011;21762;54.480;18.556;2023-12-07T01:29:17;61.30;;;30.60;;
35188;SDS011;21762;54.480;18.556;2023-12-07T01:31:45;68.55;;;31.98;;
35188;SDS011;21762;54.480;18.556;2023-12-07T01:34:15;71.60;;;30.88;;
35188;SDS011;21762;54.480;18.556;2023-12-07T01:36:45;70.43;;;32.25;;
35188;SDS011;21762;54.480;18.556;2023-12-07T01:39:13;72.07;;;31.20;;
35188;SDS011;21762;54.480;18.556;2023-12-07T01:41:42;68.10;;;29.88;;
35188;SDS011;21762;54.480;18.556;2023-12-07T01:44:10;64.65;;;29.77;;
35188;SDS011;21762;54.480;18.556;2023-12-07T01:46:38;63.60;;;30.02;;
35188;SDS011;21762;54.480;18.556;2023-12-07T01:49:06;70.95;;;29.70;;
35188;SDS011;21762;54.480;18.556;2023-12-07T01:51:34;69.75;;;30.98;;
35188;SDS011;21762;54.480;18.556;2023-12-07T01:54:04;62.67;;;29.55;;
35188;SDS011;21762;54.480;18.556;2023-12-07T01:56:32;76.20;;;31.23;;
35188;SDS011;21762;54.480;18.556;2023-12-07T01:59:00;70.18;;;31.10;;
35188;SDS011;21762;54.480;18.556;2023-12-07T02:01:28;61.45;;;28.35;;
35188;SDS011;21762;54.480;18.556;2023-12-07T02:03:56;70.85;;;31.05;;
35188;SDS011;21762;54.480;18.556;2023-12-07T02:06:24;69.78;;;30.10;;
35188;SDS011;21762;54.480;18.556;2023-12-07T02:08:53;67.80;;;30.95;;
35188;SDS011;21762;54.480;18.556;2023-12-07T02:11:22;65.07;;;30.67;;
35188;SDS011;21762;54.480;18.556;2023-12-07T02:13:50;68.15;;;31.25;;
35188;SDS011;21762;54.480;18.556;2023-12-07T02:16:23;62.33;;;28.70;;
35188;SDS011;21762;54.480;18.556;2023-12-07T02:18:54;71.22;;;31.30;;
35188;SDS011;21762;54.480;18.556;2023-12-07T02:21:30;66.03;;;30.35;;
35188;SDS011;21762;54.480;18.556;2023-12-07T02:24:02;67.88;;;30.85;;
35188;SDS011;21762;54.480;18.556;2023-12-07T02:26:33;69.50;;;31.83;;
35188;SDS011;21762;54.480;18.556;2023-12-07T02:29:02;67.50;;;30.73;;
35188;SDS011;21762;54.480;18.556;2023-12-07T02:31:30;70.03;;;30.05;;
35188;SDS011;21762;54.480;18.556;2023-12-07T02:33:58;69.75;;;30.52;;
35188;SDS011;21762;54.480;18.556;2023-12-07T02:36:27;70.18;;;31.10;;
35188;SDS011;21762;54.480;18.556;2023-12-07T02:38:56;66.78;;;30.42;;
35188;SDS011;21762;54.480;18.556;2023-12-07T02:41:24;75.05;;;30.95;;
35188;SDS011;21762;54.480;18.556;2023-12-07T02:43:54;65.22;;;29.58;;
35188;SDS011;21762;54.480;18.556;2023-12-07T02:46:24;70.38;;;30.67;;
35188;SDS011;21762;54.480;18.556;2023-12-07T02:48:52;64.60;;;30.35;;
35188;SDS011;21762;54.480;18.556;2023-12-07T02:51:20;66.90;;;31.27;;
35188;SDS011;21762;54.480;18.556;2023-12-07T02:53:48;74.65;;;31.55;;
35188;SDS011;21762;54.480;18.556;2023-12-07T02:56:16;70.10;;;29.92;;
35188;SDS011;21762;54.480;18.556;2023-12-07T02:58:44;66.53;;;29.75;;
35188;SDS011;21762;54.480;18.556;2023-12-07T03:01:13;70.15;;;29.73;;
35188;SDS011;21762;54.480;18.556;2023-12-07T03:03:41;78.28;;;30.55;;
35188;SDS011;21762;54.480;18.556;2023-12-07T03:06:10;71.03;;;30.55;;
35188;SDS011;21762;54.480;18.556;2023-12-07T03:08:37;69.40;;;29.58;;
35188;SDS011;21762;54.480;18.556;2023-12-07T03:11:06;66.78;;;29.23;;
35188;SDS011;21762;54.480;18.556;2023-12-07T03:13:34;68.35;;;31.40;;
35188;SDS011;21762;54.480;18.556;2023-12-07T03:16:06;73.13;;;30.13;;
35188;SDS011;21762;54.480;18.556;2023-12-07T03:18:36;69.63;;;30.35;;
35188;SDS011;21762;54.480;18.556;2023-12-07T03:21:04;73.93;;;30.42;;
35188;SDS011;21762;54.480;18.556;2023-12-07T03:23:32;69.57;;;29.60;;
35188;SDS011;21762;54.480;18.556;2023-12-07T03:26:01;66.70;;;29.02;;
35188;SDS011;21762;54.480;18.556;2023-12-07T03:28:29;65.13;;;29.00;;
35188;SDS011;21762;54.480;18.556;2023-12-07T03:30:57;72.07;;;30.45;;
35188;SDS011;21762;54.480;18.556;2023-12-07T03:33:25;73.55;;;30.42;;
35188;SDS011;21762;54.480;18.556;2023-12-07T03:35:54;73.13;;;30.38;;
35188;SDS011;21762;54.480;18.556;2023-12-07T03:38:23;66.80;;;29.63;;
35188;SDS011;21762;54.480;18.556;2023-12-07T03:40:51;68.20;;;29.88;;
35188;SDS011;21762;54.480;18.556;2023-12-07T03:43:19;63.28;;;28.98;;
35188;SDS011;21762;54.480;18.556;2023-12-07T03:45:47;65.60;;;29.85;;
35188;SDS011;21762;54.480;18.556;2023-12-07T03:48:15;76.00;;;29.20;;
35188;SDS011;21762;54.480;18.556;2023-12-07T03:50:43;70.47;;;30.42;;
35188;SDS011;21762;54.480;18.556;2023-12-07T03:53:12;72.43;;;29.58;;
35188;SDS011;21762;54.480;18.556;2023-12-07T03:55:41;64.13;;;28.52;;
35188;SDS011;21762;54.480;18.556;2023-12-07T03:58:09;70.95;;;30.88;;
35188;SDS011;21762;54.480;18.556;2023-12-07T04:00:37;69.38;;;31.05;;
35188;SDS011;21762;54.480;18.556;2023-12-07T04:03:05;69.63;;;28.88;;
35188;SDS011;21762;54.480;18.556;2023-12-07T04:05:33;65.47;;;29.08;;
35188;SDS011;21762;54.480;18.556;2023-12-07T04:08:01;68.28;;;30.77;;
35188;SDS011;21762;54.480;18.556;2023-12-07T04:10:31;71.95;;;29.38;;
35188;SDS011;21762;54.480;18.556;2023-12-07T04:12:59;75.18;;;30.67;;
35188;SDS011;21762;54.480;18.556;2023-12-07T04:15:27;72.57;;;30.48;;
35188;SDS011;21762;54.480;18.556;2023-12-07T04:17:55;67.70;;;29.25;;
35188;SDS011;21762;54.480;18.556;2023-12-07T04:20:23;65.82;;;29.65;;
35188;SDS011;21762;54.480;18.556;2023-12-07T04:22:51;73.15;;;30.17;;
35188;SDS011;21762;54.480;18.556;2023-12-07T04:25:19;65.03;;;29.20;;
35188;SDS011;21762;54.480;18.556;2023-12-07T04:27:50;68.47;;;29.95;;
35188;SDS011;21762;54.480;18.556;2023-12-07T04:30:18;68.57;;;30.40;;
35188;SDS011;21762;54.480;18.556;2023-12-07T04:32:46;76.45;;;31.35;;
35188;SDS011;21762;54.480;18.556;2023-12-07T04:35:14;68.97;;;30.02;;
35188;SDS011;21762;54.480;18.556;2023-12-07T04:37:43;70.15;;;30.70;;
35188;SDS011;21762;54.480;18.556;2023-12-07T04:40:11;69.95;;;30.33;;
35188;SDS011;21762;54.480;18.556;2023-12-07T04:42:39;71.88;;;28.80;;
35188;SDS011;21762;54.480;18.556;2023-12-07T04:45:09;74.38;;;31.88;;
35188;SDS011;21762;54.480;18.556;2023-12-07T04:47:37;80.55;;;30.90;;
35188;SDS011;21762;54.480;18.556;2023-12-07T04:50:05;69.47;;;30.77;;
35188;SDS011;21762;54.480;18.556;2023-12-07T04:52:34;72.45;;;29.95;;
35188;SDS011;21762;54.480;18.556;2023-12-07T04:55:02;69.95;;;30.58;;
35188;SDS011;21762;54.480;18.556;2023-12-07T04:57:32;67.45;;;29.50;;
35188;SDS011;21762;54.480;18.556;2023-12-07T05:00:00;74.43;;;31.20;;
35188;SDS011;21762;54.480;18.556;2023-12-07T05:02:33;68.47;;;29.77;;
35188;SDS011;21762;54.480;18.556;2023-12-07T05:05:01;71.13;;;30.30;;
35188;SDS011;21762;54.480;18.556;2023-12-07T05:07:30;74.75;;;31.08;;
35188;SDS011;21762;54.480;18.556;2023-12-07T05:09:58;68.35;;;29.02;;
35188;SDS011;21762;54.480;18.556;2023-12-07T05:12:26;67.50;;;29.80;;
35188;SDS011;21762;54.480;18.556;2023-12-07T05:14:53;70.57;;;29.88;;
35188;SDS011;21762;54.480;18.556;2023-12-07T05:17:21;68.25;;;30.58;;
35188;SDS011;21762;54.480;18.556;2023-12-07T05:19:51;64.07;;;30.17;;
35188;SDS011;21762;54.480;18.556;2023-12-07T05:22:19;74.85;;;28.30;;
35188;SDS011;21762;54.480;18.556;2023-12-07T05:24:48;65.47;;;29.75;;
35188;SDS011;21762;54.480;18.556;2023-12-07T05:27:16;69.97;;;30.63;;
35188;SDS011;21762;54.480;18.556;2023-12-07T05:29:44;67.15;;;30.67;;
35188;SDS011;21762;54.480;18.556;2023-12-07T05:32:12;66.82;;;29.90;;
35188;SDS011;21762;54.480;18.556;2023-12-07T05:34:40;64.50;;;29.13;;
35188;SDS011;21762;54.480;18.556;2023-12-07T05:37:10;62.35;;;27.83;;
35188;SDS011;21762;54.480;18.556;2023-12-07T05:39:37;64.72;;;29.10;;
35188;SDS011;21762;54.480;18.556;2023-12-07T05:42:05;63.25;;;27.98;;
35188;SDS011;21762;54.480;18.556;2023-12-07T05:44:33;65.57;;;29.20;;
35188;SDS011;21762;54.480;18.556;2023-12-07T05:47:01;60.58;;;27.45;;
35188;SDS011;21762;54.480;18.556;2023-12-07T05:49:30;67.90;;;28.67;;
35188;SDS011;21762;54.480;18.556;2023-12-07T05:51:58;64.68;;;29.63;;
35188;SDS011;21762;54.480;18.556;2023-12-07T05:54:28;65.70;;;28.80;;
35188;SDS011;21762;54.480;18.556;2023-12-07T05:56:56;55.00;;;26.55;;
35188;SDS011;21762;54.480;18.556;2023-12-07T05:59:24;65.28;;;29.08;;
35188;SDS011;21762;54.480;18.556;2023-12-07T06:01:52;69.07;;;28.77;;
35188;SDS011;21762;54.480;18.556;2023-12-07T06:04:20;63.58;;;30.13;;
35188;SDS011;21762;54.480;18.556;2023-12-07T06:06:48;63.78;;;28.60;;
35188;SDS011;21762;54.480;18.556;2023-12-07T06:09:16;66.05;;;29.92;;
35188;SDS011;21762;54.480;18.556;2023-12-07T06:11:45;64.05;;;28.52;;
35188;SDS011;21762;54.480;18.556;2023-12-07T06:14:13;63.17;;;28.20;;
35188;SDS011;21762;54.480;18.556;2023-12-07T06:16:41;69.03;;;30.00;;
35188;SDS011;21762;54.480;18.556;2023-12-07T06:19:09;66.47;;;30.27;;
35188;SDS011;21762;54.480;18.556;2023-12-07T06:21:37;75.20;;;30.25;;
35188;SDS011;21762;54.480;18.556;2023-12-07T06:24:06;66.07;;;30.48;;
35188;SDS011;21762;54.480;18.556;2023-12-07T06:26:34;64.40;;;29.42;;
35188;SDS011;21762;54.480;18.556;2023-12-07T06:29:04;64.68;;;28.33;;
35188;SDS011;21762;54.480;18.556;2023-12-07T06:31:34;68.65;;;30.30;;
35188;SDS011;21762;54.480;18.556;2023-12-07T06:34:02;64.47;;;29.23;;
35188;SDS011;21762;54.480;18.556;2023-12-07T06:36:30;65.85;;;28.35;;
35188;SDS011;21762;54.480;18.556;2023-12-07T06:38:58;74.05;;;31.80;;
35188;SDS011;21762;54.480;18.556;2023-12-07T06:41:26;66.43;;;28.88;;
35188;SDS011;21762;54.480;18.556;2023-12-07T06:43:54;75.78;;;31.88;;
35188;SDS011;21762;54.480;18.556;2023-12-07T06:46:23;67.53;;;29.63;;
35188;SDS011;21762;54.480;18.556;2023-12-07T06:48:51;72.13;;;30.45;;
35188;SDS011;21762;54.480;18.556;2023-12-07T06:51:19;74.72;;;31.20;;
35188;SDS011;21762;54.480;18.556;2023-12-07T06:53:47;69.90;;;29.33;;
35188;SDS011;21762;54.480;18.556;2023-12-07T06:56:15;76.80;;;31.85;;
35188;SDS011;21762;54.480;18.556;2023-12-07T06:58:43;68.63;;;28.50;;
35188;SDS011;21762;54.480;18.556;2023-12-07T07:01:11;68.63;;;30.58;;
35188;SDS011;21762;54.480;18.556;2023-12-07T07:03:40;64.03;;;29.65;;
35188;SDS011;21762;54.480;18.556;2023-12-07T07:06:08;71.60;;;30.52;;
35188;SDS011;21762;54.480;18.556;2023-12-07T07:08:36;69.95;;;31.27;;
35188;SDS011;21762;54.480;18.556;2023-12-07T07:11:09;70.55;;;29.77;;
35188;SDS011;21762;54.480;18.556;2023-12-07T07:13:39;72.28;;;28.92;;
35188;SDS011;21762;54.480;18.556;2023-12-07T07:16:07;75.32;;;32.08;;
35188;SDS011;21762;54.480;18.556;2023-12-07T07:18:37;73.97;;;32.53;;
35188;SDS011;21762;54.480;18.556;2023-12-07T07:21:07;73.28;;;31.63;;
35188;SDS011;21762;54.480;18.556;2023-12-07T07:23:35;73.95;;;31.88;;
35188;SDS011;21762;54.480;18.556;2023-12-07T07:26:03;76.88;;;31.70;;
35188;SDS011;21762;54.480;18.556;2023-12-07T07:28:31;73.57;;;32.63;;
35188;SDS011;21762;54.480;18.556;2023-12-07T07:30:59;73.50;;;31.10;;
35188;SDS011;21762;54.480;18.556;2023-12-07T07:33:29;75.22;;;31.50;;
35188;SDS011;21762;54.480;18.556;2023-12-07T07:35:57;67.88;;;29.83;;
35188;SDS011;21762;54.480;18.556;2023-12-07T07:38:27;79.57;;;32.63;;
35188;SDS011;21762;54.480;18.556;2023-12-07T07:40:55;74.43;;;30.83;;
35188;SDS011;21762;54.480;18.556;2023-12-07T07:43:23;75.82;;;31.60;;
35188;SDS011;21762;54.480;18.556;2023-12-07T07:45:51;75.18;;;32.08;;
35188;SDS011;21762;54.480;18.556;2023-12-07T07:48:19;78.07;;;31.92;;
35188;SDS011;21762;54.480;18.556;2023-12-07T07:50:47;71.72;;;32.38;;
35188;SDS011;21762;54.480;18.556;2023-12-07T07:53:15;74.63;;;31.40;;
35188;SDS011;21762;54.480;18.556;2023-12-07T07:55:44;73.53;;;30.75;;
35188;SDS011;21762;54.480;18.556;2023-12-07T07:58:12;75.90;;;33.67;;
35188;SDS011;21762;54.480;18.556;2023-12-07T08:00:40;78.85;;;32.92;;
35188;SDS011;21762;54.480;18.556;2023-12-07T08:03:08;76.07;;;31.02;;
35188;SDS011;21762;54.480;18.556;2023-12-07T08:05:36;74.72;;;31.58;;
35188;SDS011;21762;54.480;18.556;2023-12-07T08:08:04;83.32;;;32.85;;
35188;SDS011;21762;54.480;18.556;2023-12-07T08:10:32;74.63;;;31.70;;
35188;SDS011;21762;54.480;18.556;2023-12-07T08:13:01;76.53;;;32.92;;
35188;SDS011;21762;54.480;18.556;2023-12-07T08:15:29;56.88;;;23.38;;
35188;SDS011;21762;54.480;18.556;2023-12-07T08:17:58;75.63;;;32.33;;
35188;SDS011;21762;54.480;18.556;2023-12-07T08:20:27;70.07;;;32.63;;
35188;SDS011;21762;54.480;18.556;2023-12-07T08:22:55;73.82;;;32.25;;
35188;SDS011;21762;54.480;18.556;2023-12-07T08:25:22;74.90;;;31.27;;
35188;SDS011;21762;54.480;18.556;2023-12-07T08:27:50;80.60;;;32.33;;
35188;SDS011;21762;54.480;18.556;2023-12-07T08:30:20;75.97;;;32.75;;
35188;SDS011;21762;54.480;18.556;2023-12-07T08:32:48;70.50;;;32.30;;
35188;SDS011;21762;54.480;18.556;2023-12-07T08:35:16;77.93;;;32.85;;
35188;SDS011;21762;54.480;18.556;2023-12-07T08:37:44;80.13;;;32.63;;
35188;SDS011;21762;54.480;18.556;2023-12-07T08:40:12;76.13;;;32.80;;
35188;SDS011;21762;54.480;18.556;2023-12-07T08:42:44;68.47;;;30.20;;
35188;SDS011;21762;54.480;18.556;2023-12-07T08:45:14;68.95;;;30.83;;
35188;SDS011;21762;54.480;18.556;2023-12-07T08:47:44;72.03;;;32.97;;
35188;SDS011;21762;54.480;18.556;2023-12-07T08:50:12;72.40;;;31.67;;
35188;SDS011;21762;54.480;18.556;2023-12-07T08:52:40;73.05;;;31.98;;
35188;SDS011;21762;54.480;18.556;2023-12-07T08:55:10;75.75;;;33.97;;
35188;SDS011;21762;54.480;18.556;2023-12-07T08:57:38;79.90;;;35.00;;
35188;SDS011;21762;54.480;18.556;2023-12-07T09:00:06;79.82;;;34.22;;
35188;SDS011;21762;54.480;18.556;2023-12-07T09:02:35;70.68;;;32.22;;
35188;SDS011;21762;54.480;18.556;2023-12-07T09:05:05;79.97;;;33.05;;
35188;SDS011;21762;54.480;18.556;2023-12-07T09:07:35;70.18;;;32.80;;
35188;SDS011;21762;54.480;18.556;2023-12-07T09:10:03;76.38;;;33.60;;
35188;SDS011;21762;54.480;18.556;2023-12-07T09:12:33;73.00;;;32.53;;
35188;SDS011;21762;54.480;18.556;2023-12-07T09:15:03;72.38;;;32.85;;
35188;SDS011;21762;54.480;18.556;2023-12-07T09:17:33;77.68;;;32.33;;
35188;SDS011;21762;54.480;18.556;2023-12-07T09:20:01;67.68;;;32.03;;
35188;SDS011;21762;54.480;18.556;2023-12-07T09:22:31;74.78;;;33.20;;
35188;SDS011;21762;54.480;18.556;2023-12-07T09:25:00;72.25;;;30.48;;
35188;SDS011;21762;54.480;18.556;2023-12-07T09:27:28;77.40;;;33.03;;
35188;SDS011;21762;54.480;18.556;2023-12-07T09:29:58;73.05;;;32.38;;
35188;SDS011;21762;54.480;18.556;2023-12-07T09:32:26;70.65;;;31.52;;
35188;SDS011;21762;54.480;18.556;2023-12-07T09:34:55;71.95;;;31.83;;
35188;SDS011;21762;54.480;18.556;2023-12-07T09:37:23;69.22;;;30.80;;
35188;SDS011;21762;54.480;18.556;2023-12-07T09:39:53;73.72;;;32.90;;
35188;SDS011;21762;54.480;18.556;2023-12-07T09:42:21;68.07;;;29.63;;
35188;SDS011;21762;54.480;18.556;2023-12-07T09:44:51;72.40;;;31.85;;
35188;SDS011;21762;54.480;18.556;2023-12-07T09:47:19;67.10;;;30.25;;
35188;SDS011;21762;54.480;18.556;2023-12-07T09:49:49;67.70;;;32.23;;
35188;SDS011;21762;54.480;18.556;2023-12-07T09:52:17;73.15;;;32.10;;
35188;SDS011;21762;54.480;18.556;2023-12-07T09:54:46;72.07;;;32.13;;
35188;SDS011;21762;54.480;18.556;2023-12-07T09:57:16;67.38;;;30.75;;
35188;SDS011;21762;54.480;18.556;2023-12-07T09:59:44;70.18;;;29.42;;
35188;SDS011;21762;54.480;18.556;2023-12-07T10:02:13;70.07;;;29.80;;
35188;SDS011;21762;54.480;18.556;2023-12-07T10:04:41;70.00;;;30.52;;
35188;SDS011;21762;54.480;18.556;2023-12-07T10:07:09;61.20;;;28.00;;
35188;SDS011;21762;54.480;18.556;2023-12-07T10:09:38;66.18;;;29.92;;
35188;SDS011;21762;54.480;18.556;2023-12-07T10:12:07;73.93;;;32.75;;
35188;SDS011;21762;54.480;18.556;2023-12-07T10:14:37;74.70;;;31.08;;
35188;SDS011;21762;54.480;18.556;2023-12-07T10:17:06;70.00;;;31.10;;
35188;SDS011;21762;54.480;18.556;2023-12-07T10:19:34;69.95;;;29.05;;
35188;SDS011;21762;54.480;18.556;2023-12-07T10:22:12;68.20;;;30.30;;
35188;SDS011;21762;54.480;18.556;2023-12-07T10:24:41;66.55;;;30.42;;
35188;SDS011;21762;54.480;18.556;2023-12-07T10:27:09;71.07;;;30.98;;
35188;SDS011;21762;54.480;18.556;2023-12-07T10:29:39;68.18;;;30.92;;
35188;SDS011;21762;54.480;18.556;2023-12-07T10:32:10;71.63;;;31.90;;
35188;SDS011;21762;54.480;18.556;2023-12-07T10:34:38;72.70;;;32.15;;
35188;SDS011;21762;54.480;18.556;2023-12-07T10:37:06;72.88;;;32.03;;
35188;SDS011;21762;54.480;18.556;2023-12-07T10:39:34;71.40;;;32.30;;
35188;SDS011;21762;54.480;18.556;2023-12-07T10:42:04;65.60;;;29.02;;
35188;SDS011;21762;54.480;18.556;2023-12-07T10:44:33;67.25;;;31.38;;
35188;SDS011;21762;54.480;18.556;2023-12-07T10:47:06;72.90;;;31.40;;
35188;SDS011;21762;54.480;18.556;2023-12-07T10:49:36;69.90;;;31.30;;
35188;SDS011;21762;54.480;18.556;2023-12-07T10:52:11;72.75;;;31.20;;
35188;SDS011;21762;54.480;18.556;2023-12-07T10:54:41;65.25;;;31.13;;
35188;SDS011;21762;54.480;18.556;2023-12-07T10:57:11;72.80;;;31.33;;
35188;SDS011;21762;54.480;18.556;2023-12-07T10:59:41;66.90;;;30.33;;
35188;SDS011;21762;54.480;18.556;2023-12-07T11:02:11;67.22;;;29.42;;
35188;SDS011;21762;54.480;18.556;2023-12-07T11:04:41;65.47;;;29.88;;
35188;SDS011;21762;54.480;18.556;2023-12-07T11:07:10;71.32;;;31.77;;
35188;SDS011;21762;54.480;18.556;2023-12-07T11:09:42;66.78;;;31.73;;
35188;SDS011;21762;54.480;18.556;2023-12-07T11:12:13;71.50;;;32.47;;
35188;SDS011;21762;54.480;18.556;2023-12-07T11:14:45;73.45;;;32.55;;
35188;SDS011;21762;54.480;18.556;2023-12-07T11:17:16;70.10;;;30.35;;
35188;SDS011;21762;54.480;18.556;2023-12-07T11:19:44;72.05;;;33.30;;
35188;SDS011;21762;54.480;18.556;2023-12-07T11:22:14;69.03;;;30.95;;
35188;SDS011;21762;54.480;18.556;2023-12-07T11:24:51;70.88;;;33.35;;
35188;SDS011;21762;54.480;18.556;2023-12-07T11:27:21;72.32;;;31.75;;
35188;SDS011;21762;54.480;18.556;2023-12-07T11:29:49;68.45;;;30.23;;
35188;SDS011;21762;54.480;18.556;2023-12-07T11:32:19;68.38;;;31.13;;
35188;SDS011;21762;54.480;18.556;2023-12-07T11:34:52;68.53;;;31.67;;
35188;SDS011;21762;54.480;18.556;2023-12-07T11:37:20;71.70;;;32.28;;
35188;SDS011;21762;54.480;18.556;2023-12-07T11:39:48;69.22;;;30.35;;
35188;SDS011;21762;54.480;18.556;2023-12-07T11:42:17;69.38;;;31.60;;
35188;SDS011;21762;54.480;18.556;2023-12-07T11:44:47;69.40;;;31.58;;
35188;SDS011;21762;54.480;18.556;2023-12-07T11:47:16;71.93;;;31.40;;
35188;SDS011;21762;54.480;18.556;2023-12-07T11:49:48;67.88;;;33.17;;
35188;SDS011;21762;54.480;18.556;2023-12-07T11:52:16;68.28;;;31.65;;
35188;SDS011;21762;54.480;18.556;2023-12-07T11:54:45;69.88;;;30.88;;
35188;SDS011;21762;54.480;18.556;2023-12-07T11:57:13;73.90;;;33.45;;
35188;SDS011;21762;54.480;18.556;2023-12-07T11:59:42;73.82;;;33.95;;
35188;SDS011;21762;54.480;18.556;2023-12-07T12:02:11;69.82;;;32.80;;
35188;SDS011;21762;54.480;18.556;2023-12-07T12:04:41;70.95;;;33.08;;
35188;SDS011;21762;54.480;18.556;2023-12-07T12:07:09;72.38;;;32.35;;
35188;SDS011;21762;54.480;18.556;2023-12-07T12:09:37;71.13;;;33.28;;
35188;SDS011;21762;54.480;18.556;2023-12-07T12:12:06;75.93;;;33.45;;
35188;SDS011;21762;54.480;18.556;2023-12-07T12:14:34;75.13;;;33.90;;
35188;SDS011;21762;54.480;18.556;2023-12-07T12:17:02;64.45;;;31.13;;
35188;SDS011;21762;54.480;18.556;2023-12-07T12:19:30;71.15;;;31.10;;
35188;SDS011;21762;54.480;18.556;2023-12-07T12:22:03;91.28;;;32.10;;
35188;SDS011;21762;54.480;18.556;2023-12-07T12:24:33;72.27;;;32.27;;
35188;SDS011;21762;54.480;18.556;2023-12-07T12:27:01;65.82;;;32.75;;
35188;SDS011;21762;54.480;18.556;2023-12-07T12:29:30;66.50;;;31.58;;
35188;SDS011;21762;54.480;18.556;2023-12-07T12:31:59;70.15;;;32.53;;
35188;SDS011;21762;54.480;18.556;2023-12-07T12:34:28;71.63;;;32.33;;
35188;SDS011;21762;54.480;18.556;2023-12-07T12:36:58;75.32;;;33.47;;
35188;SDS011;21762;54.480;18.556;2023-12-07T12:39:28;70.55;;;34.03;;
35188;SDS011;21762;54.480;18.556;2023-12-07T12:41:58;75.43;;;34.45;;
35188;SDS011;21762;54.480;18.556;2023-12-07T12:44:27;70.10;;;33.65;;
35188;SDS011;21762;54.480;18.556;2023-12-07T12:46:56;68.15;;;32.95;;
35188;SDS011;21762;54.480;18.556;2023-12-07T12:49:34;84.03;;;35.65;;
35188;SDS011;21762;54.480;18.556;2023-12-07T12:52:02;71.63;;;34.38;;
35188;SDS011;21762;54.480;18.556;2023-12-07T12:54:32;77.47;;;35.03;;
35188;SDS011;21762;54.480;18.556;2023-12-07T12:57:00;73.50;;;34.00;;
35188;SDS011;21762;54.480;18.556;2023-12-07T12:59:28;79.70;;;35.75;;
35188;SDS011;21762;54.480;18.556;2023-12-07T13:01:56;77.68;;;35.40;;
35188;SDS011;21762;54.480;18.556;2023-12-07T13:04:24;80.85;;;35.22;;
35188;SDS011;21762;54.480;18.556;2023-12-07T13:06:53;72.93;;;33.38;;
35188;SDS011;21762;54.480;18.556;2023-12-07T13:09:21;75.68;;;33.80;;
35188;SDS011;21762;54.480;18.556;2023-12-07T13:11:50;78.13;;;35.13;;
35188;SDS011;21762;54.480;18.556;2023-12-07T13:14:18;82.07;;;38.22;;
35188;SDS011;21762;54.480;18.556;2023-12-07T13:16:46;80.60;;;38.45;;
35188;SDS011;21762;54.480;18.556;2023-12-07T13:19:14;77.60;;;36.83;;
35188;SDS011;21762;54.480;18.556;2023-12-07T13:21:42;75.75;;;36.72;;
35188;SDS011;21762;54.480;18.556;2023-12-07T13:24:10;78.47;;;35.63;;
35188;SDS011;21762;54.480;18.556;2023-12-07T13:26:39;82.65;;;36.70;;
35188;SDS011;21762;54.480;18.556;2023-12-07T13:29:08;81.88;;;36.47;;
35188;SDS011;21762;54.480;18.556;2023-12-07T13:31:40;75.30;;;35.72;;
35188;SDS011;21762;54.480;18.556;2023-12-07T13:34:09;78.88;;;36.55;;
35188;SDS011;21762;54.480;18.556;2023-12-07T13:36:40;81.47;;;38.13;;
35188;SDS011;21762;54.480;18.556;2023-12-07T13:39:08;81.43;;;36.85;;
35188;SDS011;21762;54.480;18.556;2023-12-07T13:41:42;79.00;;;36.03;;
35188;SDS011;21762;54.480;18.556;2023-12-07T13:44:11;74.43;;;36.95;;
35188;SDS011;21762;54.480;18.556;2023-12-07T13:46:41;78.18;;;36.20;;
35188;SDS011;21762;54.480;18.556;2023-12-07T13:49:11;78.47;;;36.58;;
35188;SDS011;21762;54.480;18.556;2023-12-07T13:51:41;81.75;;;37.70;;
35188;SDS011;21762;54.480;18.556;2023-12-07T13:54:09;83.60;;;37.63;;
35188;SDS011;21762;54.480;18.556;2023-12-07T13:56:44;73.72;;;36.20;;
35188;SDS011;21762;54.480;18.556;2023-12-07T13:59:14;77.28;;;35.22;;
35188;SDS011;21762;54.480;18.556;2023-12-07T14:01:42;74.22;;;35.15;;
35188;SDS011;21762;54.480;18.556;2023-12-07T14:04:10;79.00;;;36.00;;
35188;SDS011;21762;54.480;18.556;2023-12-07T14:06:38;78.75;;;36.70;;
35188;SDS011;21762;54.480;18.556;2023-12-07T14:09:06;84.60;;;37.17;;
35188;SDS011;21762;54.480;18.556;2023-12-07T14:11:34;82.43;;;35.92;;
35188;SDS011;21762;54.480;18.556;2023-12-07T14:14:02;83.05;;;37.33;;
35188;SDS011;21762;54.480;18.556;2023-12-07T14:16:32;79.55;;;36.28;;